Time;durP1;ratioP1;P1;durP2;ratioP2;P2;SDS_P1;SDS_P2;PMS_P1;PMS_P2;Temp;Humidity;BMP_temperature;BMP_pressure;BME280_temperature;BME280_humidity;BME280_pressure;Samples;Min_cycle;Max_cycle;Signal;HPM_P1;HPM_P2
2021/03/23 00:01:40;;;;;;;10.85;6.30;;;6.70;99.90;;;;;;5023805;28;20595;-86
2021/03/23 00:04:07;;;;;;;12.48;4.75;;;6.70;99.90;;;;;;5024555;28;20204;-87
2021/03/23 00:06:34;;;;;;;8.85;4.90;;;6.60;99.90;;;;;;5022637;28;20212;-85
2021/03/23 00:09:04;;;;;;;9.95;5.38;;;6.60;99.90;;;;;;5023704;28;20568;-86
2021/03/23 00:11:33;;;;;;;5.43;4.80;;;6.50;99.90;;;;;;5024271;28;20600;-87
2021/03/23 00:14:02;;;;;;;8.13;4.88;;;6.50;99.90;;;;;;5025843;28;20251;-86
2021/03/23 00:16:31;;;;;;;6.40;5.15;;;6.20;99.90;;;;;;5035229;28;20231;-86
2021/03/23 00:18:57;;;;;;;10.40;6.45;;;6.40;99.90;;;;;;5040691;28;20239;-86
2021/03/23 00:21:25;;;;;;;10.85;6.15;;;6.40;99.90;;;;;;5040719;28;20196;-86
2021/03/23 00:23:58;;;;;;;8.70;4.85;;;5.80;99.90;;;;;;5040922;28;20200;-86
2021/03/23 00:26:24;;;;;;;12.45;6.10;;;6.40;99.90;;;;;;5040778;28;20204;-86
2021/03/23 00:28:54;;;;;;;6.88;4.88;;;6.60;99.90;;;;;;5040210;28;20240;-85
2021/03/23 00:31:29;;;;;;;5.32;4.82;;;6.80;99.90;;;;;;5038912;28;20189;-86
2021/03/23 00:33:55;;;;;;;11.10;5.40;;;6.60;99.90;;;;;;5037489;28;20254;-85
2021/03/23 00:36:26;;;;;;;8.20;5.50;;;6.50;99.90;;;;;;5038590;28;20208;-86
2021/03/23 00:38:54;;;;;;;6.85;4.60;;;6.50;99.90;;;;;;5039176;28;20239;-86
2021/03/23 00:41:20;;;;;;;10.98;4.85;;;6.50;99.90;;;;;;5037822;28;20234;-86
2021/03/23 00:43:47;;;;;;;8.35;5.63;;;6.10;99.90;;;;;;5033385;28;20247;-86
2021/03/23 00:46:13;;;;;;;8.60;6.55;;;6.10;99.90;;;;;;5031710;28;20208;-87
2021/03/23 00:48:40;;;;;;;13.30;5.80;;;6.20;99.90;;;;;;5025805;28;20275;-87
2021/03/23 00:51:06;;;;;;;10.02;5.68;;;6.20;99.90;;;;;;5023601;28;20698;-86
2021/03/23 00:53:32;;;;;;;8.63;5.95;;;6.20;99.90;;;;;;5022116;28;20204;-87
2021/03/23 00:56:01;;;;;;;11.48;6.38;;;6.20;99.90;;;;;;5019610;28;20204;-86
2021/03/23 00:58:27;;;;;;;13.25;5.50;;;6.20;99.90;;;;;;5019914;28;20306;-86
2021/03/23 01:00:53;;;;;;;7.00;4.82;;;6.10;99.90;;;;;;5021259;28;20204;-86
2021/03/23 01:03:19;;;;;;;9.68;5.07;;;5.90;99.90;;;;;;5019878;28;20260;-86
2021/03/23 01:05:49;;;;;;;9.35;5.20;;;6.00;99.90;;;;;;5019015;28;20212;-86
2021/03/23 01:08:15;;;;;;;8.90;6.90;;;6.00;99.90;;;;;;5019123;28;20599;-86
2021/03/23 01:10:42;;;;;;;14.18;6.15;;;6.00;99.90;;;;;;5018592;28;20683;-86
2021/03/23 01:13:08;;;;;;;13.75;6.60;;;6.00;99.90;;;;;;5018459;28;20251;-86
2021/03/23 01:15:34;;;;;;;8.15;5.05;;;5.90;99.90;;;;;;5018648;28;20200;-86
2021/03/23 01:18:01;;;;;;;7.20;5.30;;;5.90;99.90;;;;;;5018379;28;20211;-86
2021/03/23 01:20:29;;;;;;;10.35;5.00;;;6.00;99.90;;;;;;5019357;28;20247;-86
2021/03/23 01:22:56;;;;;;;8.50;5.25;;;6.20;99.90;;;;;;5018706;28;20594;-86
2021/03/23 01:25:23;;;;;;;5.50;4.40;;;6.00;99.90;;;;;;5018713;28;20201;-86
2021/03/23 01:27:50;;;;;;;5.95;5.18;;;5.60;99.90;;;;;;5019045;28;20235;-86
2021/03/23 01:30:19;;;;;;;9.73;6.13;;;6.00;99.90;;;;;;5019116;28;20209;-86
2021/03/23 01:32:45;;;;;;;7.10;5.82;;;6.00;99.90;;;;;;5018191;28;20243;-86
2021/03/23 01:35:12;;;;;;;11.05;5.65;;;6.10;99.90;;;;;;5019968;28;20235;-86
2021/03/23 01:37:38;;;;;;;8.10;5.97;;;6.00;99.90;;;;;;5021079;28;20204;-86
2021/03/23 01:40:07;;;;;;;6.22;5.13;;;6.00;99.90;;;;;;5019585;28;20224;-87
2021/03/23 01:42:42;;;;;;;9.77;6.45;;;6.00;99.90;;;;;;5021669;28;20608;-87
2021/03/23 01:45:21;;;;;;;10.35;6.53;;;6.00;99.90;;;;;;5020537;28;20204;-87
2021/03/23 01:47:49;;;;;;;10.70;5.35;;;6.00;99.90;;;;;;5020847;28;20200;-88
2021/03/23 01:50:16;;;;;;;10.27;5.72;;;6.00;99.90;;;;;;5023307;28;20212;-86
2021/03/23 01:52:46;;;;;;;9.55;6.95;;;6.00;99.90;;;;;;5021099;28;20211;-86
2021/03/23 01:55:14;;;;;;;11.93;7.15;;;6.00;99.90;;;;;;5021781;28;20193;-87
2021/03/23 01:57:41;;;;;;;9.57;7.15;;;6.00;99.90;;;;;;5020167;28;20231;-87
2021/03/23 02:00:10;;;;;;;7.60;5.85;;;6.00;99.90;;;;;;5019705;28;20228;-86
2021/03/23 02:02:37;;;;;;;10.00;6.13;;;5.90;99.90;;;;;;5020263;28;20220;-86
2021/03/23 02:05:06;;;;;;;10.45;6.80;;;6.00;99.90;;;;;;5028491;28;20208;-86
2021/03/23 02:07:32;;;;;;;8.15;7.20;;;6.00;99.90;;;;;;5034478;28;20212;-86
2021/03/23 02:09:59;;;;;;;10.50;6.68;;;6.00;99.90;;;;;;5025850;28;20224;-86
2021/03/23 02:12:30;;;;;;;10.27;6.35;;;6.00;99.90;;;;;;5025965;28;20291;-87
2021/03/23 02:14:56;;;;;;;8.90;5.88;;;6.10;99.90;;;;;;5035073;28;20192;-87
2021/03/23 02:17:26;;;;;;;7.63;5.63;;;5.90;99.90;;;;;;5029433;28;20208;-86
2021/03/23 02:19:55;;;;;;;6.97;5.53;;;5.90;99.90;;;;;;5021621;28;20263;-86
2021/03/23 02:22:24;;;;;;;8.20;6.30;;;5.90;99.90;;;;;;5028454;28;20252;-86
2021/03/23 02:24:51;;;;;;;10.13;5.70;;;5.90;99.90;;;;;;5034167;28;20227;-86
2021/03/23 02:27:18;;;;;;;9.48;6.57;;;5.80;99.90;;;;;;5023476;28;20239;-86
2021/03/23 02:29:44;;;;;;;7.97;5.80;;;5.70;99.90;;;;;;5026268;28;20722;-86
2021/03/23 02:32:11;;;;;;;12.80;6.53;;;5.80;99.90;;;;;;5023580;28;20211;-87
2021/03/23 02:34:37;;;;;;;13.23;6.95;;;5.90;99.90;;;;;;5028650;28;20581;-86
2021/03/23 02:37:04;;;;;;;14.98;8.93;;;5.90;99.90;;;;;;5026523;28;20228;-86
2021/03/23 02:39:33;;;;;;;12.15;7.93;;;5.90;99.90;;;;;;5024031;28;20235;-86
2021/03/23 02:42:00;;;;;;;10.50;8.00;;;5.80;99.90;;;;;;5023596;28;20227;-86
2021/03/23 02:44:27;;;;;;;9.93;7.43;;;5.90;99.90;;;;;;5024200;28;20209;-86
2021/03/23 02:46:54;;;;;;;11.85;8.45;;;5.90;99.90;;;;;;5038532;28;20196;-85
2021/03/23 02:49:21;;;;;;;15.20;8.50;;;5.90;99.90;;;;;;5038433;28;20204;-86
2021/03/23 02:51:49;;;;;;;15.88;8.73;;;5.80;99.90;;;;;;5038646;28;20183;-85
2021/03/23 02:54:15;;;;;;;13.30;9.55;;;5.70;99.90;;;;;;5038109;28;20209;-86
2021/03/23 02:56:42;;;;;;;10.90;6.90;;;5.70;99.90;;;;;;5035992;28;20259;-87
2021/03/23 02:59:09;;;;;;;16.05;8.43;;;5.70;99.90;;;;;;5035227;28;20228;-85
2021/03/23 03:01:35;;;;;;;10.70;7.25;;;6.10;99.90;;;;;;5034853;28;20205;-87
2021/03/23 03:04:03;;;;;;;15.88;8.32;;;5.80;99.90;;;;;;5035771;28;20225;-87
2021/03/23 03:06:29;;;;;;;11.65;8.80;;;5.60;99.90;;;;;;5035141;28;20268;-86
2021/03/23 03:08:55;;;;;;;10.82;8.70;;;5.70;99.90;;;;;;5035595;28;20224;-85
2021/03/23 03:11:21;;;;;;;14.00;9.13;;;5.70;99.90;;;;;;5033255;28;20204;-86
2021/03/23 03:13:48;;;;;;;16.02;9.90;;;5.80;99.90;;;;;;5028314;28;20208;-87
2021/03/23 03:16:14;;;;;;;14.93;10.32;;;5.70;99.90;;;;;;5020052;28;20307;-86
2021/03/23 03:18:40;;;;;;;17.92;12.60;;;5.50;99.90;;;;;;5018442;28;20239;-87
2021/03/23 03:21:07;;;;;;;21.67;10.63;;;5.50;99.90;;;;;;5017529;28;20668;-86
2021/03/23 03:23:33;;;;;;;15.55;10.00;;;5.40;99.90;;;;;;5018890;28;20224;-86
2021/03/23 03:25:59;;;;;;;16.13;10.13;;;5.50;99.90;;;;;;5017868;28;20205;-86
2021/03/23 03:28:25;;;;;;;12.63;8.48;;;5.50;99.90;;;;;;5017210;28;20232;-87
2021/03/23 03:30:52;;;;;;;13.43;8.57;;;5.60;99.90;;;;;;5017546;28;20216;-86
2021/03/23 03:33:21;;;;;;;14.77;9.25;;;5.70;99.90;;;;;;5018325;28;20224;-87
2021/03/23 03:35:48;;;;;;;12.25;8.85;;;5.70;99.90;;;;;;5018910;28;20601;-87
2021/03/23 03:38:15;;;;;;;14.05;8.38;;;5.60;99.90;;;;;;5019164;28;20235;-86
2021/03/23 03:40:43;;;;;;;10.40;7.80;;;5.60;99.90;;;;;;5025505;28;20266;-86
2021/03/23 03:43:12;;;;;;;10.63;7.60;;;5.50;99.90;;;;;;5024005;28;20451;-87
2021/03/23 03:45:38;;;;;;;10.60;7.32;;;5.60;99.90;;;;;;5029028;28;20442;-87
2021/03/23 03:48:06;;;;;;;11.70;7.93;;;5.40;99.90;;;;;;5021057;28;20469;-85
2021/03/23 03:50:33;;;;;;;11.40;8.00;;;5.60;99.90;;;;;;5019668;28;20451;-86
2021/03/23 03:52:59;;;;;;;9.45;7.07;;;5.50;99.90;;;;;;5022491;28;20200;-86
2021/03/23 03:55:29;;;;;;;13.20;6.95;;;5.70;99.90;;;;;;5021759;28;20200;-87
2021/03/23 03:57:55;;;;;;;7.53;5.63;;;5.50;99.90;;;;;;5022478;28;20686;-86
2021/03/23 04:00:24;;;;;;;9.50;6.68;;;5.60;99.90;;;;;;5025717;28;20274;-87
2021/03/23 04:02:51;;;;;;;11.50;6.05;;;5.60;99.90;;;;;;5022756;28;20251;-86
2021/03/23 04:05:21;;;;;;;9.10;6.65;;;5.50;99.90;;;;;;5030876;28;20441;-87
2021/03/23 04:07:47;;;;;;;9.43;6.10;;;5.70;99.90;;;;;;5025922;28;20255;-86
2021/03/23 04:10:14;;;;;;;6.03;5.13;;;5.60;99.90;;;;;;5023203;28;20212;-86
2021/03/23 04:12:40;;;;;;;6.57;5.85;;;5.60;99.90;;;;;;5021259;28;20200;-86
2021/03/23 04:15:07;;;;;;;7.47;5.65;;;5.70;99.90;;;;;;5020390;28;20270;-85
2021/03/23 04:17:33;;;;;;;8.80;6.43;;;5.60;99.90;;;;;;5019757;28;20225;-86
2021/03/23 04:20:00;;;;;;;6.80;6.15;;;5.60;99.90;;;;;;5020141;28;20234;-86
2021/03/23 04:22:27;;;;;;;8.90;6.70;;;5.50;99.90;;;;;;5019712;28;20220;-86
2021/03/23 04:24:53;;;;;;;11.43;5.63;;;5.40;99.90;;;;;;5020316;28;20204;-86
2021/03/23 04:27:19;;;;;;;10.07;6.90;;;5.50;99.90;;;;;;5019593;28;20476;-86
2021/03/23 04:29:45;;;;;;;6.30;5.55;;;5.40;99.90;;;;;;5019293;28;20450;-86
2021/03/23 04:32:12;;;;;;;14.02;6.15;;;5.60;99.90;;;;;;5019893;28;20208;-86
2021/03/23 04:34:38;;;;;;;7.75;6.05;;;5.60;99.90;;;;;;5021066;28;20205;-86
2021/03/23 04:37:05;;;;;;;11.65;5.63;;;5.50;99.90;;;;;;5020451;28;20208;-86
2021/03/23 04:39:33;;;;;;;6.90;5.45;;;5.50;99.90;;;;;;5019675;28;20231;-86
2021/03/23 04:41:59;;;;;;;7.32;5.10;;;5.20;99.90;;;;;;5021042;28;20211;-86
2021/03/23 04:44:25;;;;;;;6.32;4.93;;;5.40;99.90;;;;;;5020967;28;20282;-86
2021/03/23 04:46:51;;;;;;;9.73;4.88;;;5.40;99.90;;;;;;5021740;28;20239;-86
2021/03/23 04:49:18;;;;;;;4.60;4.20;;;5.50;99.90;;;;;;5025187;28;20227;-86
2021/03/23 04:51:44;;;;;;;4.53;4.13;;;5.30;99.90;;;;;;5026067;28;20664;-87
2021/03/23 04:54:11;;;;;;;6.43;4.13;;;5.40;99.90;;;;;;5024783;28;20205;-88
2021/03/23 04:56:39;;;;;;;4.55;4.00;;;5.40;99.90;;;;;;5025203;28;20204;-87
2021/03/23 04:59:06;;;;;;;4.95;3.90;;;5.40;99.90;;;;;;5023382;28;20228;-87
2021/03/23 05:01:33;;;;;;;4.82;3.92;;;5.50;99.90;;;;;;5024468;28;20205;-87
2021/03/23 05:04:01;;;;;;;5.75;4.05;;;5.40;99.90;;;;;;5023134;28;20224;-87
2021/03/23 05:06:27;;;;;;;3.97;3.22;;;5.40;99.90;;;;;;5022240;28;20208;-87
2021/03/23 05:08:54;;;;;;;5.22;3.67;;;5.40;99.90;;;;;;5024444;28;20898;-87
2021/03/23 05:11:22;;;;;;;3.35;3.05;;;5.40;99.90;;;;;;5022957;28;20588;-88
2021/03/23 05:13:49;;;;;;;5.20;3.40;;;5.50;99.90;;;;;;5021611;28;20255;-87
2021/03/23 05:16:16;;;;;;;4.00;3.30;;;5.50;99.90;;;;;;5021705;28;20573;-86
2021/03/23 05:18:42;;;;;;;5.65;3.40;;;5.50;99.90;;;;;;5022283;28;20228;-87
2021/03/23 05:21:08;;;;;;;3.70;3.20;;;5.60;99.90;;;;;;5020988;28;20212;-86
2021/03/23 05:23:35;;;;;;;3.65;3.30;;;5.50;99.90;;;;;;5032466;28;20227;-87
2021/03/23 05:26:02;;;;;;;3.92;3.50;;;5.40;99.90;;;;;;5033852;28;20213;-86
2021/03/23 05:28:33;;;;;;;4.38;3.05;;;5.40;99.90;;;;;;5033807;28;20251;-86
2021/03/23 05:31:01;;;;;;;4.65;3.30;;;5.50;99.90;;;;;;5033646;28;20189;-87
2021/03/23 05:33:28;;;;;;;3.88;3.00;;;5.50;99.90;;;;;;5033862;28;20209;-86
2021/03/23 05:35:56;;;;;;;4.38;3.38;;;5.60;99.90;;;;;;5034476;28;20239;-86
2021/03/23 05:38:23;;;;;;;6.60;3.78;;;5.70;99.90;;;;;;5033916;28;20227;-87
2021/03/23 05:40:53;;;;;;;5.30;3.97;;;5.50;99.90;;;;;;5028849;28;20216;-87
2021/03/23 05:43:53;;;;;;;5.72;4.65;;;5.50;99.90;;;;;;5023405;28;20224;-87
2021/03/23 05:46:29;;;;;;;6.75;4.80;;;5.60;99.90;;;;;;5027002;28;20247;-87
2021/03/23 05:49:27;;;;;;;4.75;4.28;;;5.60;99.90;;;;;;5034840;28;20249;-87
2021/03/23 05:52:00;;;;;;;6.68;5.30;;;5.50;99.90;;;;;;5022785;28;20614;-87
2021/03/23 05:54:34;;;;;;;7.97;5.72;;;5.30;99.90;;;;;;5036082;28;20188;-87
2021/03/23 05:57:06;;;;;;;7.50;5.55;;;5.40;99.90;;;;;;5037457;28;20200;-86
2021/03/23 05:59:45;;;;;;;9.05;6.13;;;5.40;99.90;;;;;;5034610;28;20252;-86
2021/03/23 06:02:22;;;;;;;6.35;4.85;;;5.50;99.90;;;;;;5021947;28;20235;-87
2021/03/23 06:04:55;;;;;;;8.73;6.40;;;5.50;99.90;;;;;;5018156;28;20195;-87
2021/03/23 06:07:21;;;;;;;8.70;6.32;;;5.10;99.90;;;;;;5021115;28;20185;-87
2021/03/23 06:09:47;;;;;;;9.70;5.97;;;5.40;99.90;;;;;;5019952;28;20323;-86
2021/03/23 06:12:23;;;;;;;10.10;6.90;;;5.30;99.90;;;;;;5020461;28;20215;-87
2021/03/23 06:15:00;;;;;;;10.15;6.93;;;5.50;99.90;;;;;;5020017;28;20266;-88
2021/03/23 06:17:40;;;;;;;10.57;7.03;;;5.70;99.90;;;;;;5020535;28;20200;-87
2021/03/23 06:20:30;;;;;;;8.45;6.57;;;5.40;99.90;;;;;;5029000;28;20223;-86
2021/03/23 06:23:34;;;;;;;10.30;6.88;;;5.50;99.90;;;;;;5026925;28;20267;-87
2021/03/23 06:26:04;;;;;;;11.23;8.30;;;5.60;99.90;;;;;;5020675;28;20204;-86
2021/03/23 06:28:41;;;;;;;10.40;7.28;;;5.50;99.90;;;;;;5021439;28;20255;-86
2021/03/23 06:31:19;;;;;;;12.20;8.35;;;5.60;99.90;;;;;;5032028;28;20215;-87
2021/03/23 06:33:47;;;;;;;14.13;7.35;;;5.70;99.90;;;;;;5019199;28;20188;-87
2021/03/23 06:36:20;;;;;;;8.18;6.93;;;5.80;99.90;;;;;;5019242;28;20747;-87
2021/03/23 06:38:48;;;;;;;10.32;7.15;;;5.90;99.90;;;;;;5019868;28;20228;-86
2021/03/23 06:41:18;;;;;;;6.60;5.68;;;5.40;99.90;;;;;;5017745;28;20216;-86
2021/03/23 06:43:47;;;;;;;12.18;8.30;;;5.80;99.90;;;;;;5017849;28;20216;-86
2021/03/23 06:46:22;;;;;;;8.95;7.57;;;5.80;99.90;;;;;;5019922;28;20698;-86
2021/03/23 06:49:04;;;;;;;12.40;9.30;;;5.70;99.90;;;;;;5026581;28;20242;-86
2021/03/23 06:51:30;;;;;;;12.55;7.97;;;5.80;99.90;;;;;;5024207;28;20211;-86
2021/03/23 06:54:14;;;;;;;8.07;6.25;;;5.90;99.90;;;;;;5020300;28;20251;-86
2021/03/23 06:56:40;;;;;;;8.48;6.68;;;5.90;99.90;;;;;;5018338;28;20208;-86
2021/03/23 06:59:13;;;;;;;11.77;7.45;;;6.00;99.90;;;;;;5021137;28;20232;-86
2021/03/23 07:01:40;;;;;;;13.88;7.18;;;6.00;99.90;;;;;;5020039;28;20586;-87
2021/03/23 07:04:26;;;;;;;15.50;8.32;;;5.80;99.90;;;;;;5019750;28;20232;-88
2021/03/23 07:07:05;;;;;;;9.73;6.05;;;5.80;99.90;;;;;;5018502;28;20235;-87
2021/03/23 07:09:32;;;;;;;8.75;6.03;;;5.80;99.90;;;;;;5018168;28;20232;-87
2021/03/23 07:12:02;;;;;;;12.77;6.57;;;5.90;99.90;;;;;;5019419;28;20208;-86
2021/03/23 07:14:32;;;;;;;8.82;7.97;;;5.90;99.90;;;;;;5021774;28;20227;-88
2021/03/23 07:17:33;;;;;;;9.98;7.57;;;5.80;99.90;;;;;;5022659;28;20216;-87
2021/03/23 07:20:07;;;;;;;6.60;5.85;;;5.60;99.90;;;;;;5023604;28;20738;-87
2021/03/23 07:22:44;;;;;;;12.50;7.93;;;6.20;99.90;;;;;;5022717;28;20237;-87
2021/03/23 07:25:34;;;;;;;9.75;5.70;;;6.00;99.90;;;;;;5024213;28;20192;-86
2021/03/23 07:28:31;;;;;;;7.63;6.68;;;5.70;99.90;;;;;;5024972;28;20189;-86
2021/03/23 07:31:07;;;;;;;9.25;7.20;;;6.00;99.90;;;;;;5023710;28;20275;-87
2021/03/23 07:33:40;;;;;;;11.35;7.53;;;6.00;99.90;;;;;;5024619;28;20256;-88
2021/03/23 07:36:14;;;;;;;16.83;8.90;;;5.90;99.90;;;;;;5024449;28;20192;-88
2021/03/23 07:38:45;;;;;;;7.32;5.88;;;6.00;99.90;;;;;;5025319;28;20251;-86
2021/03/23 07:41:20;;;;;;;9.45;6.60;;;6.00;99.90;;;;;;5039281;28;20177;-86
2021/03/23 07:43:52;;;;;;;9.60;6.38;;;6.00;99.90;;;;;;5041225;28;20207;-85
2021/03/23 07:46:23;;;;;;;10.13;7.22;;;5.90;99.90;;;;;;5040101;28;20192;-86
2021/03/23 07:48:55;;;;;;;10.73;7.30;;;6.00;99.90;;;;;;5039783;28;20234;-86
2021/03/23 07:51:28;;;;;;;12.05;8.52;;;6.00;99.90;;;;;;5040723;28;20177;-86
2021/03/23 07:54:18;;;;;;;9.52;7.13;;;6.10;99.90;;;;;;5040229;28;20184;-87
2021/03/23 07:56:58;;;;;;;17.77;9.65;;;6.10;99.90;;;;;;5040130;28;20185;-84
2021/03/23 07:59:51;;;;;;;12.52;7.50;;;6.10;99.90;;;;;;5038268;28;20236;-87
2021/03/23 08:02:34;;;;;;;9.85;6.93;;;5.90;99.90;;;;;;5031081;28;20443;-87
2021/03/23 08:05:09;;;;;;;10.35;9.13;;;6.10;99.90;;;;;;5033529;28;20188;-86
2021/03/23 08:07:42;;;;;;;10.43;7.47;;;6.30;99.90;;;;;;5035898;28;20192;-85
2021/03/23 08:10:25;;;;;;;11.90;9.20;;;6.10;99.90;;;;;;5036284;28;20231;-87
2021/03/23 08:13:00;;;;;;;9.90;7.82;;;6.20;99.90;;;;;;5036584;28;20185;-86
2021/03/23 08:16:11;;;;;;;7.82;6.90;;;6.30;99.90;;;;;;5035930;28;20196;-86
2021/03/23 08:19:19;;;;;;;10.80;7.55;;;6.80;99.90;;;;;;5024416;28;20232;-87
2021/03/23 08:22:00;;;;;;;11.20;7.65;;;6.20;99.90;;;;;;5036415;28;20211;-86
2021/03/23 08:24:41;;;;;;;14.65;8.50;;;6.20;99.90;;;;;;5036191;28;20220;-86
2021/03/23 08:27:32;;;;;;;13.25;9.35;;;6.10;99.90;;;;;;5036724;28;20253;-86
2021/03/23 08:30:09;;;;;;;9.32;8.43;;;6.10;99.90;;;;;;5022572;28;20231;-86
2021/03/23 08:32:43;;;;;;;11.27;8.30;;;6.20;99.90;;;;;;5023422;28;20271;-87
2021/03/23 08:35:32;;;;;;;10.95;8.40;;;6.10;99.90;;;;;;5023345;28;20188;-86
2021/03/23 08:38:13;;;;;;;8.48;7.10;;;5.80;99.90;;;;;;5022706;28;20276;-86
2021/03/23 08:40:46;;;;;;;15.27;7.63;;;6.10;99.90;;;;;;5027055;28;20199;-86
2021/03/23 08:43:17;;;;;;;6.50;5.90;;;6.20;99.90;;;;;;5036116;28;20209;-86
2021/03/23 08:45:48;;;;;;;7.95;7.13;;;6.10;99.90;;;;;;5037072;28;20193;-87
2021/03/23 08:48:27;;;;;;;8.90;6.97;;;6.20;99.90;;;;;;5036667;28;20228;-86
2021/03/23 08:50:58;;;;;;;9.05;7.00;;;6.20;99.90;;;;;;5036430;28;20599;-85
2021/03/23 08:53:43;;;;;;;9.25;6.97;;;6.10;99.90;;;;;;5035071;28;20189;-86
2021/03/23 08:56:11;;;;;;;7.70;6.55;;;6.10;99.90;;;;;;5036636;28;20247;-87
2021/03/23 08:58:48;;;;;;;9.25;6.22;;;6.00;99.90;;;;;;5034608;28;20229;-85
2021/03/23 09:01:36;;;;;;;20.05;6.72;;;6.20;99.90;;;;;;5028322;28;20196;-86
2021/03/23 09:04:30;;;;;;;19.02;6.93;;;6.20;99.90;;;;;;5025489;28;20244;-86
2021/03/23 09:06:59;;;;;;;21.73;6.78;;;6.30;99.90;;;;;;5021335;28;20216;-86
2021/03/23 09:09:36;;;;;;;11.02;8.43;;;6.30;99.90;;;;;;5033428;28;20220;-86
2021/03/23 09:12:11;;;;;;;8.85;7.50;;;6.20;99.90;;;;;;5034014;28;20199;-86
2021/03/23 09:15:26;;;;;;;8.55;6.18;;;6.30;99.90;;;;;;5035930;28;20231;-85
2021/03/23 09:17:59;;;;;;;7.57;5.45;;;6.30;99.90;;;;;;4937456;29;20207;-85
2021/03/23 09:20:56;;;;;;;7.63;6.82;;;6.60;99.90;;;;;;5028575;28;20240;-86
2021/03/23 09:23:51;;;;;;;17.50;7.80;;;6.60;99.90;;;;;;5035375;28;20467;-86
2021/03/23 09:26:44;;;;;;;8.27;6.57;;;6.50;99.90;;;;;;5035864;28;20231;-85
2021/03/23 09:29:46;;;;;;;10.90;7.38;;;6.30;99.90;;;;;;5034851;28;20284;-86
2021/03/23 09:32:16;;;;;;;10.00;8.32;;;6.40;99.90;;;;;;4936615;29;20207;-86
2021/03/23 09:35:23;;;;;;;9.10;8.15;;;6.50;99.90;;;;;;5014730;28;20204;-86
2021/03/23 09:37:53;;;;;;;8.75;7.85;;;6.70;99.90;;;;;;5024880;28;20192;-86
2021/03/23 09:40:34;;;;;;;10.50;8.00;;;6.70;99.90;;;;;;5024106;28;20208;-86
2021/03/23 09:43:29;;;;;;;7.07;6.38;;;6.80;99.90;;;;;;5023164;28;20220;-86
2021/03/23 09:46:33;;;;;;;8.80;7.38;;;6.70;99.90;;;;;;5023949;28;20268;-86
2021/03/23 09:49:15;;;;;;;7.72;6.95;;;6.60;99.90;;;;;;5023481;28;20235;-86
2021/03/23 09:51:48;;;;;;;9.98;6.72;;;6.60;99.90;;;;;;5028258;28;20219;-87
2021/03/23 09:54:21;;;;;;;7.90;7.10;;;6.30;99.90;;;;;;5021766;28;20189;-86
2021/03/23 09:56:51;;;;;;;6.70;6.00;;;6.80;99.90;;;;;;5020384;28;20211;-86
2021/03/23 09:59:27;;;;;;;6.20;5.55;;;6.80;99.90;;;;;;5020745;28;20303;-87
2021/03/23 10:02:04;;;;;;;6.25;5.43;;;6.80;99.90;;;;;;5021547;28;20207;-86
2021/03/23 10:04:41;;;;;;;8.50;5.72;;;6.90;99.90;;;;;;5020395;28;20204;-86
2021/03/23 10:07:29;;;;;;;4.97;4.50;;;6.80;99.90;;;;;;5019687;28;20199;-86
2021/03/23 10:10:10;;;;;;;4.10;3.75;;;6.90;99.90;;;;;;5020660;28;20251;-86
2021/03/23 10:12:37;;;;;;;4.40;4.03;;;6.60;99.90;;;;;;5021735;28;20184;-86
2021/03/23 10:15:18;;;;;;;5.68;5.00;;;7.00;99.90;;;;;;5020300;28;20577;-86
2021/03/23 10:17:45;;;;;;;5.70;4.65;;;7.00;99.90;;;;;;5019830;28;20671;-86
2021/03/23 10:20:13;;;;;;;4.65;4.05;;;6.60;99.90;;;;;;5019630;28;20850;-86
2021/03/23 10:22:41;;;;;;;4.90;4.50;;;7.40;99.90;;;;;;5019711;28;20286;-86
2021/03/23 10:25:15;;;;;;;8.15;4.25;;;7.40;99.90;;;;;;5024999;28;20200;-87
2021/03/23 10:27:42;;;;;;;6.85;4.50;;;;;;;;;;5037424;28;20218;-86
2021/03/23 10:30:12;;;;;;;4.40;4.00;;;7.50;99.90;;;;;;5038167;28;20204;-86
2021/03/23 10:32:43;;;;;;;5.35;4.25;;;7.30;99.90;;;;;;5038174;28;20185;-86
2021/03/23 10:35:19;;;;;;;6.68;4.70;;;7.30;99.90;;;;;;5038258;28;20172;-87
2021/03/23 10:37:47;;;;;;;4.75;4.28;;;7.30;99.90;;;;;;5038411;28;20184;-86
2021/03/23 10:40:34;;;;;;;6.63;5.43;;;7.30;99.90;;;;;;5037770;28;20309;-86
2021/03/23 10:43:00;;;;;;;9.38;5.00;;;7.30;99.90;;;;;;5034994;28;20271;-86
2021/03/23 10:45:38;;;;;;;7.55;5.05;;;7.30;99.90;;;;;;5035038;28;20291;-86
2021/03/23 10:48:16;;;;;;;8.48;4.93;;;7.50;99.90;;;;;;5032249;28;20717;-87
2021/03/23 10:50:45;;;;;;;6.43;4.97;;;7.60;99.90;;;;;;5027848;28;20193;-87
2021/03/23 10:53:20;;;;;;;6.10;5.50;;;7.60;99.90;;;;;;5026228;28;20235;-86
2021/03/23 10:55:51;;;;;;;9.82;4.82;;;7.70;99.90;;;;;;5025129;28;20901;-86
2021/03/23 10:58:26;;;;;;;6.32;5.72;;;7.60;99.90;;;;;;5024082;28;20221;-86
2021/03/23 11:01:20;;;;;;;4.45;3.90;;;7.70;99.90;;;;;;5026037;28;20208;-86
2021/03/23 11:03:52;;;;;;;4.97;4.57;;;7.40;99.90;;;;;;5026782;28;20227;-87
2021/03/23 11:06:45;;;;;;;7.90;4.30;;;7.60;99.90;;;;;;5030710;28;20200;-87
2021/03/23 11:09:19;;;;;;;8.57;4.40;;;7.60;99.90;;;;;;5028746;28;20542;-88
2021/03/23 11:11:45;;;;;;;4.70;4.30;;;;;;;;;;5027070;28;20207;-87
2021/03/23 11:14:12;;;;;;;5.65;4.10;;;;;;;;;;5025018;28;20497;-87
2021/03/23 11:16:43;;;;;;;4.55;3.95;;;8.10;99.90;;;;;;5023273;28;20200;-87
2021/03/23 11:19:19;;;;;;;4.40;4.00;;;7.90;99.90;;;;;;5034297;28;20239;-87
2021/03/23 11:21:47;;;;;;;6.15;3.47;;;8.10;99.90;;;;;;5031736;28;20188;-87
2021/03/23 11:24:13;;;;;;;7.07;3.70;;;7.60;99.90;;;;;;5030825;28;20211;-87
2021/03/23 11:26:44;;;;;;;4.20;3.80;;;;;;;;;;5029210;28;20231;-87
2021/03/23 11:29:15;;;;;;;4.07;3.60;;;8.40;99.90;;;;;;5030058;28;20232;-86
2021/03/23 11:31:41;;;;;;;5.55;5.05;;;;;;;;;;5024456;28;20589;-86
2021/03/23 11:34:08;;;;;;;2.70;2.45;;;8.10;99.90;;;;;;5022296;28;20224;-87
2021/03/23 11:36:34;;;;;;;3.40;3.08;;;8.00;99.90;;;;;;5029597;28;20193;-87
2021/03/23 11:39:03;;;;;;;9.07;4.38;;;8.20;99.90;;;;;;5035200;28;20213;-87
2021/03/23 11:41:34;;;;;;;2.63;2.40;;;8.10;99.90;;;;;;5034107;28;20734;-87
2021/03/23 11:44:07;;;;;;;2.80;2.60;;;8.20;99.90;;;;;;5033908;28;20192;-86
2021/03/23 11:46:39;;;;;;;5.73;4.10;;;8.40;99.90;;;;;;5034340;28;20431;-86
2021/03/23 11:49:13;;;;;;;3.33;3.10;;;8.50;99.90;;;;;;5034014;28;20442;-85
2021/03/23 11:51:46;;;;;;;2.88;2.67;;;8.50;99.90;;;;;;5034317;28;20420;-87
2021/03/23 11:54:14;;;;;;;11.23;3.53;;;8.50;99.90;;;;;;5033276;28;20213;-87
2021/03/23 11:56:41;;;;;;;5.38;2.85;;;7.50;99.90;;;;;;5027105;28;20441;-87
2021/03/23 11:59:08;;;;;;;3.27;3.00;;;8.40;99.90;;;;;;5020654;28;20232;-87
2021/03/23 12:01:34;;;;;;;3.70;3.40;;;8.70;99.90;;;;;;5022759;28;20552;-87
2021/03/23 12:04:01;;;;;;;8.83;3.30;;;;;;;;;;5025334;28;20447;-86
2021/03/23 12:06:35;;;;;;;5.15;3.50;;;8.50;99.90;;;;;;5030458;28;20783;-86
2021/03/23 12:09:09;;;;;;;3.70;3.10;;;10.50;99.90;;;;;;5029796;28;20228;-86
2021/03/23 12:11:46;;;;;;;2.50;2.30;;;7.80;99.90;;;;;;5028380;28;20455;-86
2021/03/23 12:14:23;;;;;;;3.20;2.57;;;8.70;99.90;;;;;;5027420;28;20496;-86
2021/03/23 12:16:58;;;;;;;1.97;1.87;;;8.50;99.90;;;;;;5032147;28;20469;-86
2021/03/23 12:19:28;;;;;;;5.20;2.63;;;8.40;99.90;;;;;;5031043;28;20504;-86
2021/03/23 12:21:57;;;;;;;3.30;2.70;;;8.40;99.90;;;;;;5029187;28;20444;-86
2021/03/23 12:24:24;;;;;;;7.50;3.90;;;8.40;99.90;;;;;;5030007;28;20489;-85
2021/03/23 12:26:52;;;;;;;5.23;2.53;;;8.40;99.90;;;;;;5032539;28;20413;-86
2021/03/23 12:29:20;;;;;;;3.67;3.03;;;8.30;99.90;;;;;;5033303;28;20471;-86
2021/03/23 12:31:47;;;;;;;3.03;2.72;;;8.30;99.90;;;;;;5035381;28;20459;-86
2021/03/23 12:34:13;;;;;;;6.97;2.75;;;;;;;;;;5036956;28;20228;-85
2021/03/23 12:36:42;;;;;;;4.13;3.27;;;;;;;;;;5038042;28;20196;-86
2021/03/23 12:39:09;;;;;;;4.80;3.90;;;8.20;99.90;;;;;;5037635;28;20490;-86
2021/03/23 12:41:36;;;;;;;5.13;3.83;;;8.10;99.90;;;;;;5038538;28;20446;-86
2021/03/23 12:44:06;;;;;;;4.25;3.85;;;8.10;99.90;;;;;;5038378;28;20470;-86
2021/03/23 12:46:33;;;;;;;7.45;5.40;;;8.00;99.90;;;;;;5038423;28;20211;-85
2021/03/23 12:49:00;;;;;;;6.17;5.07;;;7.70;99.90;;;;;;5038574;28;20216;-85
2021/03/23 12:51:34;;;;;;;4.63;3.30;;;7.80;99.90;;;;;;5037839;28;20439;-86
2021/03/23 12:54:01;;;;;;;4.20;3.80;;;;;;;;;;5034223;28;20211;-86
2021/03/23 12:56:32;;;;;;;13.27;4.30;;;8.30;99.90;;;;;;5033968;28;20298;-86
2021/03/23 12:59:00;;;;;;;4.43;3.72;;;6.90;99.90;;;;;;5033068;28;20289;-84
2021/03/23 13:01:27;;;;;;;6.05;3.95;;;8.30;99.90;;;;;;5032628;28;20220;-86
2021/03/23 13:03:57;;;;;;;4.05;3.47;;;8.30;99.90;;;;;;5032928;28;20207;-86
2021/03/23 13:06:29;;;;;;;6.57;4.50;;;7.50;99.90;;;;;;5032605;28;20208;-85
2021/03/23 13:09:04;;;;;;;3.53;3.28;;;8.20;99.90;;;;;;5034635;28;20463;-86
2021/03/23 13:11:33;;;;;;;3.75;3.35;;;7.90;99.90;;;;;;5029180;28;20651;-86
2021/03/23 13:14:02;;;;;;;5.78;3.75;;;8.30;99.90;;;;;;5023752;28;20315;-86
2021/03/23 13:16:33;;;;;;;7.83;4.53;;;8.40;99.90;;;;;;5025716;28;20211;-87
2021/03/23 13:19:02;;;;;;;6.60;3.70;;;8.80;99.90;;;;;;5024899;28;20490;-86
2021/03/23 13:21:48;;;;;;;6.93;3.60;;;8.30;99.90;;;;;;5029903;28;20440;-87